sensor_id;sensor_type;location;lat;lon;timestamp;pressure;altitude;pressure_sealevel;temperature;humidity
50590;BME280;36547;50.514;30.840;2023-04-21T00:00:08;99756.42;;;8.73;67.70
50590;BME280;36547;50.514;30.840;2023-04-21T00:01:10;99753.77;;;8.73;67.79
50590;BME280;36547;50.514;30.840;2023-04-21T00:02:13;99757.27;;;8.73;67.76
50590;BME280;36547;50.514;30.840;2023-04-21T00:03:15;99751.12;;;8.73;67.86
50590;BME280;36547;50.514;30.840;2023-04-21T00:04:18;99755.63;;;8.71;68.05
50590;BME280;36547;50.514;30.840;2023-04-21T00:05:22;99754.70;;;8.72;67.86
50590;BME280;36547;50.514;30.840;2023-04-21T00:06:25;99751.12;;;8.73;67.73
50590;BME280;36547;50.514;30.840;2023-04-21T00:07:28;99760.00;;;8.72;67.78
50590;BME280;36547;50.514;30.840;2023-04-21T00:08:31;99752.83;;;8.74;67.76
50590;BME280;36547;50.514;30.840;2023-04-21T00:09:33;99752.91;;;8.72;67.79
50590;BME280;36547;50.514;30.840;2023-04-21T00:10:35;99751.12;;;8.73;67.64
50590;BME280;36547;50.514;30.840;2023-04-21T00:11:37;99749.41;;;8.72;67.71
50590;BME280;36547;50.514;30.840;2023-04-21T00:12:40;99750.19;;;8.74;67.74
50590;BME280;36547;50.514;30.840;2023-04-21T00:13:42;99740.52;;;8.73;67.70
50590;BME280;36547;50.514;30.840;2023-04-21T00:14:44;99748.47;;;8.73;67.68
50590;BME280;36547;50.514;30.840;2023-04-21T00:15:46;99756.42;;;8.73;67.67
50590;BME280;36547;50.514;30.840;2023-04-21T00:16:49;99750.19;;;8.74;67.64
50590;BME280;36547;50.514;30.840;2023-04-21T00:17:51;99753.84;;;8.71;67.75
50590;BME280;36547;50.514;30.840;2023-04-21T00:18:54;99745.89;;;8.71;67.74
50590;BME280;36547;50.514;30.840;2023-04-21T00:19:56;99745.97;;;8.70;67.73
50590;BME280;36547;50.514;30.840;2023-04-21T00:20:59;99745.11;;;8.69;67.69
50590;BME280;36547;50.514;30.840;2023-04-21T00:22:02;99748.69;;;8.68;67.74
50590;BME280;36547;50.514;30.840;2023-04-21T00:23:04;99750.41;;;8.69;67.77
50590;BME280;36547;50.514;30.840;2023-04-21T00:24:07;99749.55;;;8.69;67.76
50590;BME280;36547;50.514;30.840;2023-04-21T00:25:10;99745.19;;;8.68;67.62
50590;BME280;36547;50.514;30.840;2023-04-21T00:26:12;99745.19;;;8.68;67.76
50590;BME280;36547;50.514;30.840;2023-04-21T00:27:17;99743.39;;;8.68;67.82
50590;BME280;36547;50.514;30.840;2023-04-21T00:28:19;99740.06;;;8.65;67.87
50590;BME280;36547;50.514;30.840;2023-04-21T00:29:22;99738.27;;;8.65;67.76
50590;BME280;36547;50.514;30.840;2023-04-21T00:30:24;99743.65;;;8.64;67.82
50590;BME280;36547;50.514;30.840;2023-04-21T00:31:27;99743.72;;;8.62;67.95
50590;BME280;36547;50.514;30.840;2023-04-21T00:32:32;99747.23;;;8.63;67.88
50590;BME280;36547;50.514;30.840;2023-04-21T00:33:34;99741.08;;;8.62;67.80
50590;BME280;36547;50.514;30.840;2023-04-21T00:34:37;99741.93;;;8.63;67.83
50590;BME280;36547;50.514;30.840;2023-04-21T00:35:39;99735.84;;;8.61;67.85
50590;BME280;36547;50.514;30.840;2023-04-21T00:36:42;99735.84;;;8.61;67.91
50590;BME280;36547;50.514;30.840;2023-04-21T00:37:46;99736.93;;;8.57;67.89
50590;BME280;36547;50.514;30.840;2023-04-21T00:38:48;99737.86;;;8.56;67.86
50590;BME280;36547;50.514;30.840;2023-04-21T00:39:50;99739.58;;;8.57;67.93
50590;BME280;36547;50.514;30.840;2023-04-21T00:40:52;99738.64;;;8.58;67.84
50590;BME280;36547;50.514;30.840;2023-04-21T00:41:55;99743.16;;;8.56;67.87
50590;BME280;36547;50.514;30.840;2023-04-21T00:42:57;99743.02;;;8.59;67.97
50590;BME280;36547;50.514;30.840;2023-04-21T00:45:13;99734.66;;;8.66;67.92
50590;BME280;36547;50.514;30.840;2023-04-21T00:46:17;99736.29;;;8.51;67.96
50590;BME280;36547;50.514;30.840;2023-04-21T00:47:19;99740.66;;;8.53;67.92
50590;BME280;36547;50.514;30.840;2023-04-21T00:48:24;99731.85;;;8.52;67.94
50590;BME280;36547;50.514;30.840;2023-04-21T00:49:27;99740.66;;;8.53;68.14
50590;BME280;36547;50.514;30.840;2023-04-21T00:50:29;99737.08;;;8.54;68.06
50590;BME280;36547;50.514;30.840;2023-04-21T00:51:34;99748.59;;;8.53;68.08
50590;BME280;36547;50.514;30.840;2023-04-21T00:52:41;99748.59;;;8.53;68.01
50590;BME280;36547;50.514;30.840;2023-04-21T00:53:44;99743.30;;;8.53;68.00
50590;BME280;36547;50.514;30.840;2023-04-21T00:54:47;99741.77;;;8.48;68.12
50590;BME280;36547;50.514;30.840;2023-04-21T00:55:50;99741.69;;;8.50;68.22
50590;BME280;36547;50.514;30.840;2023-04-21T00:56:53;99740.98;;;8.46;68.22
50590;BME280;36547;50.514;30.840;2023-04-21T00:57:56;99750.64;;;8.47;68.29
50590;BME280;36547;50.514;30.840;2023-04-21T00:59:01;99743.63;;;8.46;68.22
50590;BME280;36547;50.514;30.840;2023-04-21T01:00:06;99744.41;;;8.48;68.21
50590;BME280;36547;50.514;30.840;2023-04-21T01:01:12;99741.13;;;8.43;68.17
50590;BME280;36547;50.514;30.840;2023-04-21T01:02:15;99740.20;;;8.44;68.19
50590;BME280;36547;50.514;30.840;2023-04-21T01:03:18;99738.48;;;8.43;68.27
50590;BME280;36547;50.514;30.840;2023-04-21T01:04:20;99741.20;;;8.42;68.40
50590;BME280;36547;50.514;30.840;2023-04-21T01:05:23;99736.61;;;8.45;68.34
50590;BME280;36547;50.514;30.840;2023-04-21T01:06:29;99734.90;;;8.44;68.22
50590;BME280;36547;50.514;30.840;2023-04-21T01:07:31;99731.39;;;8.44;68.22
50590;BME280;36547;50.514;30.840;2023-04-21T01:08:35;99735.98;;;8.40;68.20
50590;BME280;36547;50.514;30.840;2023-04-21T01:09:37;99733.19;;;8.43;68.25
50590;BME280;36547;50.514;30.840;2023-04-21T01:10:41;99729.67;;;8.43;68.19
50590;BME280;36547;50.514;30.840;2023-04-21T01:12:55;99734.43;;;8.54;68.29
50590;BME280;36547;50.514;30.840;2023-04-21T01:13:59;99736.98;;;8.38;68.44
50590;BME280;36547;50.514;30.840;2023-04-21T01:15:02;99735.98;;;8.40;68.27
50590;BME280;36547;50.514;30.840;2023-04-21T01:16:06;99728.10;;;8.39;68.23
50590;BME280;36547;50.514;30.840;2023-04-21T01:17:08;99735.12;;;8.40;68.46
50590;BME280;36547;50.514;30.840;2023-04-21T01:18:11;99729.03;;;8.38;68.31
50590;BME280;36547;50.514;30.840;2023-04-21T01:19:15;99730.83;;;8.37;68.35
50590;BME280;36547;50.514;30.840;2023-04-21T01:20:17;99729.89;;;8.38;68.52
50590;BME280;36547;50.514;30.840;2023-04-21T01:21:20;99731.61;;;8.39;68.41
50590;BME280;36547;50.514;30.840;2023-04-21T01:22:22;99728.03;;;8.40;68.44
50590;BME280;36547;50.514;30.840;2023-04-21T01:23:25;99728.81;;;8.42;68.37
50590;BME280;36547;50.514;30.840;2023-04-21T01:24:45;99722.73;;;8.40;68.45
50590;BME280;36547;50.514;30.840;2023-04-21T01:25:54;99718.72;;;8.50;68.34
50590;BME280;36547;50.514;30.840;2023-04-21T01:26:57;99724.92;;;8.32;68.66
50590;BME280;36547;50.514;30.840;2023-04-21T01:27:59;99725.82;;;8.31;68.62
50590;BME280;36547;50.514;30.840;2023-04-21T01:29:02;99717.88;;;8.31;68.58
50590;BME280;36547;50.514;30.840;2023-04-21T01:30:08;99715.12;;;8.34;68.72
50590;BME280;36547;50.514;30.840;2023-04-21T01:31:11;99716.05;;;8.33;68.72
50590;BME280;36547;50.514;30.840;2023-04-21T01:32:19;99718.70;;;8.33;68.71
50590;BME280;36547;50.514;30.840;2023-04-21T01:33:28;99711.78;;;8.48;68.74
50590;BME280;36547;50.514;30.840;2023-04-21T01:34:32;99716.12;;;8.32;68.72
50590;BME280;36547;50.514;30.840;2023-04-21T01:35:34;99714.26;;;8.34;68.84
50590;BME280;36547;50.514;30.840;2023-04-21T01:36:37;99712.47;;;8.34;68.46
50590;BME280;36547;50.514;30.840;2023-04-21T01:37:39;99710.69;;;8.35;68.57
50590;BME280;36547;50.514;30.840;2023-04-21T01:38:42;99715.12;;;8.34;68.56
50590;BME280;36547;50.514;30.840;2023-04-21T01:39:47;99714.19;;;8.35;68.59
50590;BME280;36547;50.514;30.840;2023-04-21T01:40:52;99712.47;;;8.34;68.72
50590;BME280;36547;50.514;30.840;2023-04-21T01:41:55;99707.17;;;8.34;68.76
50590;BME280;36547;50.514;30.840;2023-04-21T01:42:58;99716.05;;;8.33;68.95
50590;BME280;36547;50.514;30.840;2023-04-21T01:44:00;99709.04;;;8.32;68.85
50590;BME280;36547;50.514;30.840;2023-04-21T01:45:03;99708.03;;;8.35;68.76
50590;BME280;36547;50.514;30.840;2023-04-21T01:46:06;99707.17;;;8.34;68.74
50590;BME280;36547;50.514;30.840;2023-04-21T01:47:09;99717.77;;;8.34;68.84
50590;BME280;36547;50.514;30.840;2023-04-21T01:48:11;99706.31;;;8.34;68.82
50590;BME280;36547;50.514;30.840;2023-04-21T01:49:14;99708.03;;;8.35;68.82
50590;BME280;36547;50.514;30.840;2023-04-21T01:50:17;99715.12;;;8.34;68.84
50590;BME280;36547;50.514;30.840;2023-04-21T01:51:20;99704.45;;;8.36;68.83
50590;BME280;36547;50.514;30.840;2023-04-21T01:52:22;99708.89;;;8.35;68.92
50590;BME280;36547;50.514;30.840;2023-04-21T01:53:24;99708.03;;;8.35;68.92
50590;BME280;36547;50.514;30.840;2023-04-21T01:54:26;99704.45;;;8.36;68.91
50590;BME280;36547;50.514;30.840;2023-04-21T01:55:29;99700.02;;;8.36;68.87
50590;BME280;36547;50.514;30.840;2023-04-21T01:56:32;99707.96;;;8.36;68.86
50590;BME280;36547;50.514;30.840;2023-04-21T01:57:35;99699.23;;;8.34;68.87
50590;BME280;36547;50.514;30.840;2023-04-21T01:58:37;99703.59;;;8.35;68.88
50590;BME280;36547;50.514;30.840;2023-04-21T01:59:39;99703.42;;;8.38;68.86
50590;BME280;36547;50.514;30.840;2023-04-21T02:00:41;99693.76;;;8.37;68.71
50590;BME280;36547;50.514;30.840;2023-04-21T02:01:43;99699.16;;;8.36;68.70
50590;BME280;36547;50.514;30.840;2023-04-21T02:02:46;99694.73;;;8.36;68.70
50590;BME280;36547;50.514;30.840;2023-04-21T02:03:48;99692.15;;;8.35;68.79
50590;BME280;36547;50.514;30.840;2023-04-21T02:04:51;99688.64;;;8.34;68.95
50590;BME280;36547;50.514;30.840;2023-04-21T02:05:53;99686.86;;;8.35;68.82
50590;BME280;36547;50.514;30.840;2023-04-21T02:06:56;99696.59;;;8.34;68.81
50590;BME280;36547;50.514;30.840;2023-04-21T02:07:58;99694.73;;;8.36;68.87
50590;BME280;36547;50.514;30.840;2023-04-21T02:09:00;99697.44;;;8.35;68.95
50590;BME280;36547;50.514;30.840;2023-04-21T02:10:05;99690.44;;;8.34;68.73
50590;BME280;36547;50.514;30.840;2023-04-21T02:11:08;99687.86;;;8.32;68.86
50590;BME280;36547;50.514;30.840;2023-04-21T02:12:10;99692.08;;;8.36;68.84
50590;BME280;36547;50.514;30.840;2023-04-21T02:13:15;99683.28;;;8.36;68.94
50590;BME280;36547;50.514;30.840;2023-04-21T02:14:17;99684.28;;;8.33;68.82
50590;BME280;36547;50.514;30.840;2023-04-21T02:15:19;99688.72;;;8.33;68.75
50590;BME280;36547;50.514;30.840;2023-04-21T02:16:22;99689.65;;;8.32;68.87
50590;BME280;36547;50.514;30.840;2023-04-21T02:17:24;99679.09;;;8.30;68.90
50590;BME280;36547;50.514;30.840;2023-04-21T02:18:29;99681.75;;;8.30;68.90
50590;BME280;36547;50.514;30.840;2023-04-21T02:19:31;99679.09;;;8.30;68.89
50590;BME280;36547;50.514;30.840;2023-04-21T02:20:33;99673.80;;;8.30;68.86
50590;BME280;36547;50.514;30.840;2023-04-21T02:21:35;99673.80;;;8.30;69.00
50590;BME280;36547;50.514;30.840;2023-04-21T02:22:38;99672.09;;;8.29;68.85
50590;BME280;36547;50.514;30.840;2023-04-21T02:23:40;99664.30;;;8.26;68.96
50590;BME280;36547;50.514;30.840;2023-04-21T02:24:43;99673.02;;;8.28;69.04
50590;BME280;36547;50.514;30.840;2023-04-21T02:25:46;99675.67;;;8.28;68.84
50590;BME280;36547;50.514;30.840;2023-04-21T02:26:49;99666.80;;;8.29;68.94
50590;BME280;36547;50.514;30.840;2023-04-21T02:27:51;99673.95;;;8.27;68.88
50590;BME280;36547;50.514;30.840;2023-04-21T02:28:53;99671.38;;;8.26;68.79
50590;BME280;36547;50.514;30.840;2023-04-21T02:29:55;99676.60;;;8.27;68.95
50590;BME280;36547;50.514;30.840;2023-04-21T02:30:57;99671.30;;;8.27;69.13
50590;BME280;36547;50.514;30.840;2023-04-21T02:32:00;99667.73;;;8.28;69.02
50590;BME280;36547;50.514;30.840;2023-04-21T02:33:05;99666.09;;;8.26;69.02
50590;BME280;36547;50.514;30.840;2023-04-21T02:34:07;99667.88;;;8.25;69.12
50590;BME280;36547;50.514;30.840;2023-04-21T02:35:09;99666.95;;;8.26;69.26
50590;BME280;36547;50.514;30.840;2023-04-21T02:36:12;99669.59;;;8.26;69.21
50590;BME280;36547;50.514;30.840;2023-04-21T02:37:15;99660.80;;;8.26;69.16
50590;BME280;36547;50.514;30.840;2023-04-21T02:38:17;99660.94;;;8.23;69.21
50590;BME280;36547;50.514;30.840;2023-04-21T02:39:19;99663.52;;;8.24;69.27
50590;BME280;36547;50.514;30.840;2023-04-21T02:40:22;99663.59;;;8.23;69.17
50590;BME280;36547;50.514;30.840;2023-04-21T02:41:26;99657.47;;;8.22;69.26
50590;BME280;36547;50.514;30.840;2023-04-21T02:42:28;99660.11;;;8.22;69.26
50590;BME280;36547;50.514;30.840;2023-04-21T02:43:30;99665.41;;;8.22;69.25
50590;BME280;36547;50.514;30.840;2023-04-21T02:44:32;99661.80;;;8.23;69.06
50590;BME280;36547;50.514;30.840;2023-04-21T02:45:35;99657.47;;;8.22;69.13
50590;BME280;36547;50.514;30.840;2023-04-21T02:46:41;99659.25;;;8.22;69.17
50590;BME280;36547;50.514;30.840;2023-04-21T02:47:44;99665.41;;;8.22;69.20
50590;BME280;36547;50.514;30.840;2023-04-21T02:48:46;99660.26;;;8.19;69.35
50590;BME280;36547;50.514;30.840;2023-04-21T02:49:49;99654.97;;;8.19;69.41
50590;BME280;36547;50.514;30.840;2023-04-21T02:50:51;99659.55;;;8.15;69.26
50590;BME280;36547;50.514;30.840;2023-04-21T02:51:54;99656.97;;;8.14;69.29
50590;BME280;36547;50.514;30.840;2023-04-21T02:52:57;99659.69;;;8.12;69.44
50590;BME280;36547;50.514;30.840;2023-04-21T02:54:00;99652.69;;;8.11;69.52
50590;BME280;36547;50.514;30.840;2023-04-21T02:55:03;99658.83;;;8.12;69.40
50590;BME280;36547;50.514;30.840;2023-04-21T02:56:07;99660.70;;;8.10;69.44
50590;BME280;36547;50.514;30.840;2023-04-21T02:57:09;99657.27;;;8.08;69.51
50590;BME280;36547;50.514;30.840;2023-04-21T02:58:11;99661.62;;;8.09;69.58
50590;BME280;36547;50.514;30.840;2023-04-21T02:59:14;99653.69;;;8.09;69.59
50590;BME280;36547;50.514;30.840;2023-04-21T03:00:16;99662.56;;;8.08;69.57
50590;BME280;36547;50.514;30.840;2023-04-21T03:01:19;99655.58;;;8.07;69.69
50590;BME280;36547;50.514;30.840;2023-04-21T03:02:22;99658.23;;;8.07;69.65
50590;BME280;36547;50.514;30.840;2023-04-21T03:03:24;99660.70;;;8.10;69.50
50590;BME280;36547;50.514;30.840;2023-04-21T03:04:32;99662.56;;;8.08;69.56
50590;BME280;36547;50.514;30.840;2023-04-21T03:05:35;99658.05;;;8.10;69.31
50590;BME280;36547;50.514;30.840;2023-04-21T03:06:42;99655.58;;;8.07;69.43
50590;BME280;36547;50.514;30.840;2023-04-21T03:07:47;99658.23;;;8.07;69.52
50590;BME280;36547;50.514;30.840;2023-04-21T03:08:52;99653.01;;;8.05;69.47
50590;BME280;36547;50.514;30.840;2023-04-21T03:09:55;99657.44;;;8.05;69.35
50590;BME280;36547;50.514;30.840;2023-04-21T03:11:01;99654.87;;;8.03;69.44
50590;BME280;36547;50.514;30.840;2023-04-21T03:12:10;99654.02;;;8.03;69.48
50590;BME280;36547;50.514;30.840;2023-04-21T03:13:14;99660.09;;;8.05;69.42
50590;BME280;36547;50.514;30.840;2023-04-21T03:14:37;99654.87;;;8.03;69.42
50590;BME280;36547;50.514;30.840;2023-04-21T03:15:43;99654.80;;;8.05;69.21
50590;BME280;36547;50.514;30.840;2023-04-21T03:16:51;99652.15;;;8.05;69.32
50590;BME280;36547;50.514;30.840;2023-04-21T03:17:58;99653.87;;;8.06;69.19
50590;BME280;36547;50.514;30.840;2023-04-21T03:19:03;99658.23;;;8.07;68.99
50590;BME280;36547;50.514;30.840;2023-04-21T03:20:08;99651.97;;;8.08;69.08
50590;BME280;36547;50.514;30.840;2023-04-21T03:21:15;99659.09;;;8.07;68.85
50590;BME280;36547;50.514;30.840;2023-04-21T03:22:20;99653.87;;;8.06;69.03
50590;BME280;36547;50.514;30.840;2023-04-21T03:23:28;99659.16;;;8.06;68.81
50590;BME280;36547;50.514;30.840;2023-04-21T03:24:30;99659.16;;;8.06;68.98
50590;BME280;36547;50.514;30.840;2023-04-21T03:25:33;99658.98;;;8.09;68.84
50590;BME280;36547;50.514;30.840;2023-04-21T03:26:40;99666.77;;;8.12;68.78
50590;BME280;36547;50.514;30.840;2023-04-21T03:27:54;99662.41;;;8.11;68.70
50590;BME280;36547;50.514;30.840;2023-04-21T03:29:02;99660.55;;;8.13;68.66
50590;BME280;36547;50.514;30.840;2023-04-21T03:30:06;99661.48;;;8.12;68.58
50590;BME280;36547;50.514;30.840;2023-04-21T03:31:14;99660.55;;;8.13;68.60
50590;BME280;36547;50.514;30.840;2023-04-21T03:32:20;99658.69;;;8.15;68.42
50590;BME280;36547;50.514;30.840;2023-04-21T03:33:26;99656.97;;;8.14;68.33
50590;BME280;36547;50.514;30.840;2023-04-21T03:34:33;99656.12;;;8.13;68.50
50590;BME280;36547;50.514;30.840;2023-04-21T03:35:38;99662.34;;;8.12;68.36
50590;BME280;36547;50.514;30.840;2023-04-21T03:36:43;99658.83;;;8.12;68.37
50590;BME280;36547;50.514;30.840;2023-04-21T03:37:48;99654.47;;;8.11;68.44
50590;BME280;36547;50.514;30.840;2023-04-21T03:38:57;99654.33;;;8.14;68.44
50590;BME280;36547;50.514;30.840;2023-04-21T03:40:03;99660.55;;;8.13;68.56
50590;BME280;36547;50.514;30.840;2023-04-21T03:41:20;99663.98;;;8.15;68.46
50590;BME280;36547;50.514;30.840;2023-04-21T03:42:24;99663.13;;;8.14;68.59
50590;BME280;36547;50.514;30.840;2023-04-21T03:43:36;99659.47;;;8.17;68.20
50590;BME280;36547;50.514;30.840;2023-04-21T03:44:42;99652.39;;;8.18;68.16
50590;BME280;36547;50.514;30.840;2023-04-21T03:47:22;99659.64;;;8.31;68.13
50590;BME280;36547;50.514;30.840;2023-04-21T03:48:24;99654.03;;;8.20;68.27
50590;BME280;36547;50.514;30.840;2023-04-21T03:49:28;99658.47;;;8.20;68.05
50590;BME280;36547;50.514;30.840;2023-04-21T03:50:31;99662.91;;;8.19;68.04
50590;BME280;36547;50.514;30.840;2023-04-21T03:51:33;99653.96;;;8.22;68.00
50590;BME280;36547;50.514;30.840;2023-04-21T03:52:35;99664.55;;;8.22;68.15
50590;BME280;36547;50.514;30.840;2023-04-21T03:53:38;99659.15;;;8.23;67.99
50590;BME280;36547;50.514;30.840;2023-04-21T03:54:40;99665.41;;;8.22;67.97
50590;BME280;36547;50.514;30.840;2023-04-21T03:55:42;99660.11;;;8.22;68.15
50590;BME280;36547;50.514;30.840;2023-04-21T03:56:44;99658.30;;;8.23;68.24
50590;BME280;36547;50.514;30.840;2023-04-21T03:57:47;99657.36;;;8.24;67.98
50590;BME280;36547;50.514;30.840;2023-04-21T03:58:50;99656.50;;;8.23;68.16
50590;BME280;36547;50.514;30.840;2023-04-21T03:59:52;99654.64;;;8.25;68.03
50590;BME280;36547;50.514;30.840;2023-04-21T04:00:54;99659.00;;;8.26;68.07
50590;BME280;36547;50.514;30.840;2023-04-21T04:01:56;99658.07;;;8.27;68.05
50590;BME280;36547;50.514;30.840;2023-04-21T04:02:58;99656.20;;;8.29;68.08
50590;BME280;36547;50.514;30.840;2023-04-21T04:04:01;99660.64;;;8.29;68.29
50590;BME280;36547;50.514;30.840;2023-04-21T04:05:05;99660.57;;;8.30;68.19
50590;BME280;36547;50.514;30.840;2023-04-21T04:06:08;99659.71;;;8.30;68.27
50590;BME280;36547;50.514;30.840;2023-04-21T04:07:10;99649.98;;;8.30;68.37
50590;BME280;36547;50.514;30.840;2023-04-21T04:08:13;99658.07;;;8.27;68.75
50590;BME280;36547;50.514;30.840;2023-04-21T04:09:15;99661.50;;;8.29;68.71
50590;BME280;36547;50.514;30.840;2023-04-21T04:10:17;99651.84;;;8.28;68.60
50590;BME280;36547;50.514;30.840;2023-04-21T04:11:21;99656.35;;;8.26;68.75
50590;BME280;36547;50.514;30.840;2023-04-21T04:12:23;99659.94;;;8.25;68.93
50590;BME280;36547;50.514;30.840;2023-04-21T04:13:25;99652.78;;;8.27;68.95
50590;BME280;36547;50.514;30.840;2023-04-21T04:14:28;99657.92;;;8.30;68.95
50590;BME280;36547;50.514;30.840;2023-04-21T04:15:30;99661.50;;;8.29;68.99
50590;BME280;36547;50.514;30.840;2023-04-21T04:16:33;99659.71;;;8.30;68.80
50590;BME280;36547;50.514;30.840;2023-04-21T04:17:36;99659.71;;;8.30;68.89
50590;BME280;36547;50.514;30.840;2023-04-21T04:18:38;99657.92;;;8.30;68.73
50590;BME280;36547;50.514;30.840;2023-04-21T04:19:41;99659.78;;;8.28;68.63
50590;BME280;36547;50.514;30.840;2023-04-21T04:20:43;99658.85;;;8.29;68.91
50590;BME280;36547;50.514;30.840;2023-04-21T04:21:46;99663.30;;;8.29;69.06
50590;BME280;36547;50.514;30.840;2023-04-21T04:22:50;99670.38;;;8.28;69.11
50590;BME280;36547;50.514;30.840;2023-04-21T04:23:53;99670.45;;;8.27;69.12
50590;BME280;36547;50.514;30.840;2023-04-21T04:24:55;99670.52;;;8.25;69.19
50590;BME280;36547;50.514;30.840;2023-04-21T04:25:57;99671.45;;;8.24;69.35
50590;BME280;36547;50.514;30.840;2023-04-21T04:27:00;99674.88;;;8.26;69.47
50590;BME280;36547;50.514;30.840;2023-04-21T04:28:02;99672.23;;;8.26;69.44
50590;BME280;36547;50.514;30.840;2023-04-21T04:29:05;99675.81;;;8.25;69.61
50590;BME280;36547;50.514;30.840;2023-04-21T04:30:08;99674.10;;;8.24;69.78
50590;BME280;36547;50.514;30.840;2023-04-21T04:31:12;99671.63;;;8.21;70.07
50590;BME280;36547;50.514;30.840;2023-04-21T04:32:15;99675.28;;;8.19;70.31
50590;BME280;36547;50.514;30.840;2023-04-21T04:33:17;99672.56;;;8.20;70.54
50590;BME280;36547;50.514;30.840;2023-04-21T04:34:19;99676.81;;;8.23;70.45
50590;BME280;36547;50.514;30.840;2023-04-21T04:35:21;99672.38;;;8.23;70.39
50590;BME280;36547;50.514;30.840;2023-04-21T04:36:24;99679.32;;;8.26;70.34
50590;BME280;36547;50.514;30.840;2023-04-21T04:37:26;99683.69;;;8.27;70.30
50590;BME280;36547;50.514;30.840;2023-04-21T04:38:28;99680.96;;;8.28;70.40
50590;BME280;36547;50.514;30.840;2023-04-21T04:39:31;99672.95;;;8.30;70.44
50590;BME280;36547;50.514;30.840;2023-04-21T04:40:33;99678.98;;;8.33;70.41
50590;BME280;36547;50.514;30.840;2023-04-21T04:41:36;99676.34;;;8.33;70.29
50590;BME280;36547;50.514;30.840;2023-04-21T04:42:38;99675.41;;;8.34;70.37
50590;BME280;36547;50.514;30.840;2023-04-21T04:43:40;99684.13;;;8.36;70.23
50590;BME280;36547;50.514;30.840;2023-04-21T04:44:42;99683.95;;;8.39;70.29
50590;BME280;36547;50.514;30.840;2023-04-21T04:45:44;99682.09;;;8.41;70.17
50590;BME280;36547;50.514;30.840;2023-04-21T04:46:46;99679.38;;;8.43;70.06
50590;BME280;36547;50.514;30.840;2023-04-21T04:47:48;99681.94;;;8.44;70.07
50590;BME280;36547;50.514;30.840;2023-04-21T04:48:51;99682.73;;;8.46;70.11
50590;BME280;36547;50.514;30.840;2023-04-21T04:49:54;99677.28;;;8.49;70.12
50590;BME280;36547;50.514;30.840;2023-04-21T04:50:56;99674.63;;;8.49;70.05
50590;BME280;36547;50.514;30.840;2023-04-21T04:51:58;99674.45;;;8.53;70.05
50590;BME280;36547;50.514;30.840;2023-04-21T04:53:01;99665.42;;;8.57;69.98
50590;BME280;36547;50.514;30.840;2023-04-21T04:54:03;99672.44;;;8.58;69.91
50590;BME280;36547;50.514;30.840;2023-04-21T04:55:06;99679.30;;;8.62;69.93
50590;BME280;36547;50.514;30.840;2023-04-21T04:56:09;99681.02;;;8.63;69.77
50590;BME280;36547;50.514;30.840;2023-04-21T04:57:12;99682.66;;;8.65;69.76
50590;BME280;36547;50.514;30.840;2023-04-21T04:58:14;99676.39;;;8.66;69.78
50590;BME280;36547;50.514;30.840;2023-04-21T04:59:16;99685.91;;;8.70;69.45
50590;BME280;36547;50.514;30.840;2023-04-21T05:00:19;99677.88;;;8.72;69.35
50590;BME280;36547;50.514;30.840;2023-04-21T05:01:21;99668.22;;;8.71;69.42
50590;BME280;36547;50.514;30.840;2023-04-21T05:02:23;99676.95;;;8.73;69.24
50590;BME280;36547;50.514;30.840;2023-04-21T05:03:26;99681.39;;;8.72;69.07
50590;BME280;36547;50.514;30.840;2023-04-21T05:04:29;99679.59;;;8.73;69.19
50590;BME280;36547;50.514;30.840;2023-04-21T05:05:31;99676.95;;;8.73;69.26
50590;BME280;36547;50.514;30.840;2023-04-21T05:06:33;99680.45;;;8.73;69.21
50590;BME280;36547;50.514;30.840;2023-04-21T05:07:36;99677.72;;;8.75;69.20
50590;BME280;36547;50.514;30.840;2023-04-21T05:08:39;99676.09;;;8.72;69.28
50590;BME280;36547;50.514;30.840;2023-04-21T05:09:41;99676.02;;;8.74;69.25
50590;BME280;36547;50.514;30.840;2023-04-21T05:10:43;99682.24;;;8.73;69.21
50590;BME280;36547;50.514;30.840;2023-04-21T05:11:45;99683.09;;;8.73;69.12
50590;BME280;36547;50.514;30.840;2023-04-21T05:12:49;99676.02;;;8.74;69.12
50590;BME280;36547;50.514;30.840;2023-04-21T05:13:51;99678.66;;;8.74;69.41
50590;BME280;36547;50.514;30.840;2023-04-21T05:14:54;99685.75;;;8.73;69.19
50590;BME280;36547;50.514;30.840;2023-04-21T05:15:57;99688.40;;;8.73;69.12
50590;BME280;36547;50.514;30.840;2023-04-21T05:17:00;99680.45;;;8.73;68.97
50590;BME280;36547;50.514;30.840;2023-04-21T05:18:03;99690.03;;;8.76;69.00
50590;BME280;36547;50.514;30.840;2023-04-21T05:19:05;99682.17;;;8.74;68.93
50590;BME280;36547;50.514;30.840;2023-04-21T05:20:09;99679.44;;;8.76;68.68
50590;BME280;36547;50.514;30.840;2023-04-21T05:21:12;99683.09;;;8.73;68.81
50590;BME280;36547;50.514;30.840;2023-04-21T05:22:14;99683.95;;;8.74;69.02
50590;BME280;36547;50.514;30.840;2023-04-21T05:23:17;99689.25;;;8.74;68.92
50590;BME280;36547;50.514;30.840;2023-04-21T05:24:19;99689.25;;;8.74;68.89
50590;BME280;36547;50.514;30.840;2023-04-21T05:25:22;99689.25;;;8.74;68.92
50590;BME280;36547;50.514;30.840;2023-04-21T05:26:25;99689.18;;;8.75;68.91
50590;BME280;36547;50.514;30.840;2023-04-21T05:27:28;99685.59;;;8.76;68.99
50590;BME280;36547;50.514;30.840;2023-04-21T05:28:30;99688.17;;;8.78;68.86
50590;BME280;36547;50.514;30.840;2023-04-21T05:29:33;99685.52;;;8.78;68.61
50590;BME280;36547;50.514;30.840;2023-04-21T05:30:36;99688.95;;;8.80;68.64
50590;BME280;36547;50.514;30.840;2023-04-21T05:31:39;99686.20;;;8.81;68.67
50590;BME280;36547;50.514;30.840;2023-04-21T05:32:41;99688.77;;;8.83;68.52
50590;BME280;36547;50.514;30.840;2023-04-21T05:33:44;99686.90;;;8.85;68.69
50590;BME280;36547;50.514;30.840;2023-04-21T05:34:46;99684.17;;;8.86;68.44
50590;BME280;36547;50.514;30.840;2023-04-21T05:35:48;99688.46;;;8.89;68.62
50590;BME280;36547;50.514;30.840;2023-04-21T05:36:51;99685.66;;;8.92;68.52
50590;BME280;36547;50.514;30.840;2023-04-21T05:37:53;99689.09;;;8.94;68.27
50590;BME280;36547;50.514;30.840;2023-04-21T05:38:55;99681.81;;;8.98;68.43